sensor_id;sensor_type;location;lat;lon;timestamp;pressure;altitude;pressure_sealevel;temperature;humidity
34482;BME280;20720;48.886;9.388;2023-02-14T00:01:40;100246.84;;;2.85;100.00
34482;BME280;20720;48.886;9.388;2023-02-14T00:04:06;100247.34;;;2.78;100.00
34482;BME280;20720;48.886;9.388;2023-02-14T00:06:31;100256.31;;;2.47;100.00
34482;BME280;20720;48.886;9.388;2023-02-14T00:09:00;100243.06;;;2.64;100.00
34482;BME280;20720;48.886;9.388;2023-02-14T00:11:25;100241.28;;;2.13;100.00
34482;BME280;20720;48.886;9.388;2023-02-14T00:13:51;100248.34;;;2.50;100.00
34482;BME280;20720;48.886;9.388;2023-02-14T00:16:35;100247.75;;;3.10;100.00
34482;BME280;20720;48.886;9.388;2023-02-14T00:19:00;100248.88;;;3.18;100.00
34482;BME280;20720;48.886;9.388;2023-02-14T00:21:29;100248.88;;;2.80;100.00
34482;BME280;20720;48.886;9.388;2023-02-14T00:23:54;100259.28;;;2.80;100.00
34482;BME280;20720;48.886;9.388;2023-02-14T00:26:20;100241.19;;;2.54;100.00
34482;BME280;20720;48.886;9.388;2023-02-14T00:28:45;100245.84;;;2.61;100.00
34482;BME280;20720;48.886;9.388;2023-02-14T00:31:10;100240.59;;;2.75;100.00
34482;BME280;20720;48.886;9.388;2023-02-14T00:33:36;100248.47;;;2.86;100.00
34482;BME280;20720;48.886;9.388;2023-02-14T00:36:03;100250.66;;;2.93;100.00
34482;BME280;20720;48.886;9.388;2023-02-14T00:38:29;100254.91;;;2.68;100.00
34482;BME280;20720;48.886;9.388;2023-02-14T00:40:54;100258.66;;;2.77;100.00
34482;BME280;20720;48.886;9.388;2023-02-14T00:43:20;100257.63;;;2.79;100.00
34482;BME280;20720;48.886;9.388;2023-02-14T00:45:45;100256.91;;;2.77;100.00
34482;BME280;20720;48.886;9.388;2023-02-14T00:48:10;100246.81;;;2.73;100.00
34482;BME280;20720;48.886;9.388;2023-02-14T00:50:35;100256.78;;;2.92;100.00
34482;BME280;20720;48.886;9.388;2023-02-14T00:53:01;100244.31;;;2.84;100.00
34482;BME280;20720;48.886;9.388;2023-02-14T00:55:26;100252.31;;;2.81;100.00
34482;BME280;20720;48.886;9.388;2023-02-14T00:57:51;100255.94;;;2.78;100.00
34482;BME280;20720;48.886;9.388;2023-02-14T01:00:17;100255.53;;;2.72;100.00
34482;BME280;20720;48.886;9.388;2023-02-14T01:02:42;100252.91;;;2.59;100.00
34482;BME280;20720;48.886;9.388;2023-02-14T01:05:07;100250.75;;;2.66;100.00
34482;BME280;20720;48.886;9.388;2023-02-14T01:07:33;100262.97;;;2.51;100.00
34482;BME280;20720;48.886;9.388;2023-02-14T01:09:58;100256.06;;;2.25;100.00
34482;BME280;20720;48.886;9.388;2023-02-14T01:12:23;100253.03;;;1.92;100.00
34482;BME280;20720;48.886;9.388;2023-02-14T01:14:48;100255.38;;;2.09;100.00
34482;BME280;20720;48.886;9.388;2023-02-14T01:17:14;100244.25;;;1.95;100.00
34482;BME280;20720;48.886;9.388;2023-02-14T01:19:39;100245.63;;;2.13;100.00
34482;BME280;20720;48.886;9.388;2023-02-14T01:22:06;100247.63;;;1.95;100.00
34482;BME280;20720;48.886;9.388;2023-02-14T01:24:32;100245.28;;;2.31;100.00
34482;BME280;20720;48.886;9.388;2023-02-14T01:26:57;100238.09;;;2.22;100.00
34482;BME280;20720;48.886;9.388;2023-02-14T01:29:22;100239.09;;;2.46;100.00
34482;BME280;20720;48.886;9.388;2023-02-14T01:31:47;100244.63;;;2.15;100.00
34482;BME280;20720;48.886;9.388;2023-02-14T01:34:13;100256.94;;;1.85;100.00
34482;BME280;20720;48.886;9.388;2023-02-14T01:36:39;100237.28;;;1.95;100.00
34482;BME280;20720;48.886;9.388;2023-02-14T01:39:07;100236.50;;;2.07;100.00
34482;BME280;20720;48.886;9.388;2023-02-14T01:41:35;100235.97;;;2.29;100.00
34482;BME280;20720;48.886;9.388;2023-02-14T01:44:04;100246.31;;;2.29;100.00
34482;BME280;20720;48.886;9.388;2023-02-14T01:46:32;100233.91;;;2.07;100.00
34482;BME280;20720;48.886;9.388;2023-02-14T01:51:37;100234.41;;;2.00;100.00
34482;BME280;20720;48.886;9.388;2023-02-14T01:54:05;100232.50;;;1.89;100.00
34482;BME280;20720;48.886;9.388;2023-02-14T01:56:37;100231.19;;;1.96;100.00
34482;BME280;20720;48.886;9.388;2023-02-14T01:59:07;100225.53;;;2.16;100.00
34482;BME280;20720;48.886;9.388;2023-02-14T02:01:35;100234.72;;;2.34;100.00
34482;BME280;20720;48.886;9.388;2023-02-14T02:04:09;100238.25;;;2.07;100.00
34482;BME280;20720;48.886;9.388;2023-02-14T02:06:41;100233.06;;;2.07;100.00
34482;BME280;20720;48.886;9.388;2023-02-14T02:09:17;100231.06;;;1.98;100.00
34482;BME280;20720;48.886;9.388;2023-02-14T02:11:44;100228.22;;;2.15;100.00
34482;BME280;20720;48.886;9.388;2023-02-14T02:14:15;100229.06;;;1.62;100.00
34482;BME280;20720;48.886;9.388;2023-02-14T02:25:23;100221.56;;;1.57;100.00
34482;BME280;20720;48.886;9.388;2023-02-14T02:28:31;100217.34;;;1.83;100.00
34482;BME280;20720;48.886;9.388;2023-02-14T02:42:32;100235.47;;;2.36;100.00
34482;BME280;20720;48.886;9.388;2023-02-14T02:48:05;100235.72;;;2.19;100.00
34482;BME280;20720;48.886;9.388;2023-02-14T02:50:40;100236.75;;;2.17;100.00
34482;BME280;20720;48.886;9.388;2023-02-14T02:56:13;100237.34;;;2.08;100.00
34482;BME280;20720;48.886;9.388;2023-02-14T02:58:59;100239.44;;;1.88;100.00
34482;BME280;20720;48.886;9.388;2023-02-14T03:01:32;100230.19;;;1.84;100.00
34482;BME280;20720;48.886;9.388;2023-02-14T03:04:02;100231.03;;;1.85;100.00
34482;BME280;20720;48.886;9.388;2023-02-14T03:06:47;100226.53;;;2.01;100.00
34482;BME280;20720;48.886;9.388;2023-02-14T03:11:58;100233.41;;;1.88;100.00
34482;BME280;20720;48.886;9.388;2023-02-14T03:14:49;100230.56;;;1.78;100.00
34482;BME280;20720;48.886;9.388;2023-02-14T03:17:24;100229.19;;;1.18;100.00
34482;BME280;20720;48.886;9.388;2023-02-14T03:20:00;100225.88;;;1.16;100.00
34482;BME280;20720;48.886;9.388;2023-02-14T03:31:08;100230.53;;;1.52;100.00
34482;BME280;20720;48.886;9.388;2023-02-14T03:34:15;100235.22;;;2.27;100.00
34482;BME280;20720;48.886;9.388;2023-02-14T03:39:17;100237.28;;;1.95;100.00
34482;BME280;20720;48.886;9.388;2023-02-14T03:41:50;100226.38;;;1.90;100.00
34482;BME280;20720;48.886;9.388;2023-02-14T03:44:20;100227.63;;;1.97;100.00
34482;BME280;20720;48.886;9.388;2023-02-14T03:47:03;100231.31;;;1.80;100.00
34482;BME280;20720;48.886;9.388;2023-02-14T03:49:34;100229.94;;;1.75;100.00
34482;BME280;20720;48.886;9.388;2023-02-14T03:52:02;100222.53;;;1.83;100.00
34482;BME280;20720;48.886;9.388;2023-02-14T03:54:30;100221.72;;;1.95;100.00
34482;BME280;20720;48.886;9.388;2023-02-14T03:57:13;100215.09;;;1.91;100.00
34482;BME280;20720;48.886;9.388;2023-02-14T03:59:42;100214.78;;;1.69;100.00
34482;BME280;20720;48.886;9.388;2023-02-14T04:02:28;100221.91;;;1.65;100.00
34482;BME280;20720;48.886;9.388;2023-02-14T04:04:57;100218.13;;;1.98;100.00
34482;BME280;20720;48.886;9.388;2023-02-14T04:07:23;100219.34;;;1.92;100.00
34482;BME280;20720;48.886;9.388;2023-02-14T04:09:49;100214.72;;;1.56;100.00
34482;BME280;20720;48.886;9.388;2023-02-14T04:12:16;100209.69;;;1.67;100.00
34482;BME280;20720;48.886;9.388;2023-02-14T04:14:42;100206.78;;;1.86;100.00
34482;BME280;20720;48.886;9.388;2023-02-14T04:17:07;100211.31;;;1.82;100.00
34482;BME280;20720;48.886;9.388;2023-02-14T04:19:51;100217.06;;;1.33;100.00
34482;BME280;20720;48.886;9.388;2023-02-14T04:22:17;100210.81;;;0.94;100.00
34482;BME280;20720;48.886;9.388;2023-02-14T04:24:42;100210.38;;;1.02;100.00
34482;BME280;20720;48.886;9.388;2023-02-14T04:27:08;100213.97;;;1.00;100.00
34482;BME280;20720;48.886;9.388;2023-02-14T04:29:47;100214.22;;;1.09;100.00
34482;BME280;20720;48.886;9.388;2023-02-14T04:32:16;100218.53;;;1.37;100.00
34482;BME280;20720;48.886;9.388;2023-02-14T04:34:41;100205.25;;;1.01;100.00
34482;BME280;20720;48.886;9.388;2023-02-14T04:37:07;100210.69;;;1.79;100.00
34482;BME280;20720;48.886;9.388;2023-02-14T04:39:33;100205.91;;;1.18;100.00
34482;BME280;20720;48.886;9.388;2023-02-14T04:41:59;100208.00;;;1.80;100.00
34482;BME280;20720;48.886;9.388;2023-02-14T04:44:24;100212.00;;;1.72;100.00
34482;BME280;20720;48.886;9.388;2023-02-14T04:46:50;100217.13;;;1.86;100.00
34482;BME280;20720;48.886;9.388;2023-02-14T04:49:16;100220.09;;;1.80;100.00
34482;BME280;20720;48.886;9.388;2023-02-14T04:51:42;100220.34;;;1.63;100.00
34482;BME280;20720;48.886;9.388;2023-02-14T04:54:07;100208.34;;;1.62;100.00
34482;BME280;20720;48.886;9.388;2023-02-14T04:56:32;100210.41;;;1.43;100.00
34482;BME280;20720;48.886;9.388;2023-02-14T04:58:58;100209.00;;;1.51;100.00
34482;BME280;20720;48.886;9.388;2023-02-14T05:01:23;100212.66;;;1.21;100.00
34482;BME280;20720;48.886;9.388;2023-02-14T05:03:48;100203.59;;;1.14;100.00
34482;BME280;20720;48.886;9.388;2023-02-14T05:06:14;100209.97;;;1.22;100.00
34482;BME280;20720;48.886;9.388;2023-02-14T05:08:39;100202.50;;;0.89;100.00
34482;BME280;20720;48.886;9.388;2023-02-14T05:11:04;100194.75;;;1.04;100.00
34482;BME280;20720;48.886;9.388;2023-02-14T05:13:30;100197.16;;;0.92;100.00
34482;BME280;20720;48.886;9.388;2023-02-14T05:15:56;100192.44;;;1.54;100.00
34482;BME280;20720;48.886;9.388;2023-02-14T05:18:22;100200.63;;;1.34;100.00
34482;BME280;20720;48.886;9.388;2023-02-14T05:20:51;100199.88;;;1.32;100.00
34482;BME280;20720;48.886;9.388;2023-02-14T05:23:17;100205.47;;;1.93;100.00
34482;BME280;20720;48.886;9.388;2023-02-14T05:25:43;100217.59;;;1.52;100.00
34482;BME280;20720;48.886;9.388;2023-02-14T05:28:09;100209.22;;;1.34;100.00
34482;BME280;20720;48.886;9.388;2023-02-14T05:30:36;100201.25;;;1.23;100.00
34482;BME280;20720;48.886;9.388;2023-02-14T05:33:01;100210.19;;;1.46;100.00
34482;BME280;20720;48.886;9.388;2023-02-14T05:35:26;100208.72;;;1.56;100.00
34482;BME280;20720;48.886;9.388;2023-02-14T05:37:52;100208.19;;;1.37;100.00
34482;BME280;20720;48.886;9.388;2023-02-14T05:40:17;100202.28;;;1.35;100.00
34482;BME280;20720;48.886;9.388;2023-02-14T05:42:43;100191.78;;;0.95;100.00
34482;BME280;20720;48.886;9.388;2023-02-14T05:45:09;100199.91;;;1.04;100.00
34482;BME280;20720;48.886;9.388;2023-02-14T05:47:34;100198.94;;;1.33;100.00
34482;BME280;20720;48.886;9.388;2023-02-14T05:49:59;100202.38;;;1.47;100.00
34482;BME280;20720;48.886;9.388;2023-02-14T05:52:25;100199.19;;;1.02;100.00
34482;BME280;20720;48.886;9.388;2023-02-14T05:54:50;100201.84;;;1.28;100.00
34482;BME280;20720;48.886;9.388;2023-02-14T05:57:15;100201.66;;;1.17;100.00
34482;BME280;20720;48.886;9.388;2023-02-14T05:59:41;100202.47;;;1.18;100.00
34482;BME280;20720;48.886;9.388;2023-02-14T06:02:06;100216.78;;;1.23;100.00
34482;BME280;20720;48.886;9.388;2023-02-14T06:04:31;100228.00;;;1.38;100.00
34482;BME280;20720;48.886;9.388;2023-02-14T06:06:57;100227.78;;;1.55;100.00
34482;BME280;20720;48.886;9.388;2023-02-14T06:09:22;100228.88;;;1.51;100.00
34482;BME280;20720;48.886;9.388;2023-02-14T06:11:47;100234.44;;;1.59;100.00
34482;BME280;20720;48.886;9.388;2023-02-14T06:14:13;100238.03;;;1.42;100.00
34482;BME280;20720;48.886;9.388;2023-02-14T06:16:38;100226.88;;;1.14;100.00
34482;BME280;20720;48.886;9.388;2023-02-14T06:19:03;100228.00;;;1.10;100.00
34482;BME280;20720;48.886;9.388;2023-02-14T06:21:29;100237.06;;;0.88;100.00
34482;BME280;20720;48.886;9.388;2023-02-14T06:23:54;100249.78;;;0.77;100.00
34482;BME280;20720;48.886;9.388;2023-02-14T06:26:19;100243.22;;;0.86;100.00
34482;BME280;20720;48.886;9.388;2023-02-14T06:28:45;100244.06;;;0.86;100.00
34482;BME280;20720;48.886;9.388;2023-02-14T06:31:16;100241.44;;;0.72;100.00
34482;BME280;20720;48.886;9.388;2023-02-14T06:33:42;100239.03;;;0.55;100.00
34482;BME280;20720;48.886;9.388;2023-02-14T06:36:07;100244.78;;;0.60;100.00
34482;BME280;20720;48.886;9.388;2023-02-14T06:38:32;100241.78;;;0.52;100.00
34482;BME280;20720;48.886;9.388;2023-02-14T06:41:05;100241.44;;;0.72;100.00
34482;BME280;20720;48.886;9.388;2023-02-14T06:43:30;100245.97;;;0.69;100.00
34482;BME280;20720;48.886;9.388;2023-02-14T06:45:56;100246.16;;;0.66;100.00
34482;BME280;20720;48.886;9.388;2023-02-14T06:48:21;100252.00;;;0.69;100.00
34482;BME280;20720;48.886;9.388;2023-02-14T06:50:46;100249.00;;;0.61;100.00
34482;BME280;20720;48.886;9.388;2023-02-14T06:53:12;100252.66;;;0.43;100.00
34482;BME280;20720;48.886;9.388;2023-02-14T06:55:37;100248.25;;;0.59;100.00
34482;BME280;20720;48.886;9.388;2023-02-14T06:58:02;100251.38;;;0.50;100.00
34482;BME280;20720;48.886;9.388;2023-02-14T07:00:28;100252.28;;;0.35;100.00
34482;BME280;20720;48.886;9.388;2023-02-14T07:02:53;100251.38;;;0.50;100.00
34482;BME280;20720;48.886;9.388;2023-02-14T07:05:18;100245.81;;;0.86;100.00
34482;BME280;20720;48.886;9.388;2023-02-14T07:07:44;100256.94;;;1.02;100.00
34482;BME280;20720;48.886;9.388;2023-02-14T07:10:09;100256.63;;;1.07;100.00
34482;BME280;20720;48.886;9.388;2023-02-14T07:12:35;100258.69;;;1.30;100.00
34482;BME280;20720;48.886;9.388;2023-02-14T07:15:00;100255.63;;;1.78;100.00
34482;BME280;20720;48.886;9.388;2023-02-14T07:17:26;100250.28;;;1.81;100.00
34482;BME280;20720;48.886;9.388;2023-02-14T07:19:51;100246.56;;;1.85;100.00
34482;BME280;20720;48.886;9.388;2023-02-14T07:22:16;100249.19;;;1.71;100.00
34482;BME280;20720;48.886;9.388;2023-02-14T07:24:41;100243.25;;;1.83;100.00
34482;BME280;20720;48.886;9.388;2023-02-14T07:27:07;100248.59;;;2.85;100.00
34482;BME280;20720;48.886;9.388;2023-02-14T07:29:32;100241.75;;;3.22;100.00
34482;BME280;20720;48.886;9.388;2023-02-14T07:31:57;100227.78;;;3.48;100.00
34482;BME280;20720;48.886;9.388;2023-02-14T07:34:22;100235.09;;;3.90;100.00
34482;BME280;20720;48.886;9.388;2023-02-14T07:36:48;100233.88;;;4.30;100.00
34482;BME280;20720;48.886;9.388;2023-02-14T07:39:13;100231.97;;;4.56;100.00
34482;BME280;20720;48.886;9.388;2023-02-14T07:41:38;100230.28;;;5.01;100.00
34482;BME280;20720;48.886;9.388;2023-02-14T07:44:04;100234.09;;;5.41;100.00
34482;BME280;20720;48.886;9.388;2023-02-14T07:46:29;100233.69;;;5.79;100.00
34482;BME280;20720;48.886;9.388;2023-02-14T07:48:54;100244.31;;;4.76;100.00
34482;BME280;20720;48.886;9.388;2023-02-14T07:51:19;100242.13;;;5.16;100.00
34482;BME280;20720;48.886;9.388;2023-02-14T07:53:45;100244.94;;;5.68;100.00
34482;BME280;20720;48.886;9.388;2023-02-14T07:56:10;100239.84;;;5.78;100.00
34482;BME280;20720;48.886;9.388;2023-02-14T07:58:35;100235.25;;;6.24;100.00
34482;BME280;20720;48.886;9.388;2023-02-14T08:01:00;100239.22;;;6.59;100.00
34482;BME280;20720;48.886;9.388;2023-02-14T08:03:26;100250.81;;;7.08;100.00
34482;BME280;20720;48.886;9.388;2023-02-14T08:05:51;100252.16;;;6.61;100.00
34482;BME280;20720;48.886;9.388;2023-02-14T08:08:27;100247.66;;;7.44;98.50
34482;BME280;20720;48.886;9.388;2023-02-14T08:10:53;100251.38;;;7.72;93.40
34482;BME280;20720;48.886;9.388;2023-02-14T08:13:18;100251.69;;;7.18;94.34
34482;BME280;20720;48.886;9.388;2023-02-14T08:15:44;100258.81;;;7.46;95.07
34482;BME280;20720;48.886;9.388;2023-02-14T08:18:28;100257.34;;;6.40;100.00
34482;BME280;20720;48.886;9.388;2023-02-14T08:20:53;100253.16;;;7.41;100.00
34482;BME280;20720;48.886;9.388;2023-02-14T08:23:19;100255.97;;;7.49;92.40
34482;BME280;20720;48.886;9.388;2023-02-14T08:25:46;100250.78;;;7.58;97.27
34482;BME280;20720;48.886;9.388;2023-02-14T08:28:12;100244.56;;;8.18;92.52
34482;BME280;20720;48.886;9.388;2023-02-14T08:30:41;100246.19;;;8.96;87.33
34482;BME280;20720;48.886;9.388;2023-02-14T08:33:07;100252.88;;;8.52;88.09
34482;BME280;20720;48.886;9.388;2023-02-14T08:35:33;100254.22;;;7.29;100.00
34482;BME280;20720;48.886;9.388;2023-02-14T08:37:58;100259.59;;;8.93;92.46
34482;BME280;20720;48.886;9.388;2023-02-14T08:40:24;100265.56;;;7.39;100.00
34482;BME280;20720;48.886;9.388;2023-02-14T08:42:49;100259.84;;;8.90;94.46
34482;BME280;20720;48.886;9.388;2023-02-14T08:45:15;100261.19;;;7.19;100.00
34482;BME280;20720;48.886;9.388;2023-02-14T08:47:40;100254.16;;;9.13;97.44
34482;BME280;20720;48.886;9.388;2023-02-14T08:50:10;100240.16;;;10.66;83.75
34482;BME280;20720;48.886;9.388;2023-02-14T08:52:38;100237.06;;;9.46;83.19
34482;BME280;20720;48.886;9.388;2023-02-14T08:55:04;100240.34;;;9.75;88.36
34482;BME280;20720;48.886;9.388;2023-02-14T08:57:29;100247.75;;;9.89;87.60
34482;BME280;20720;48.886;9.388;2023-02-14T08:59:55;100241.28;;;9.57;86.24
34482;BME280;20720;48.886;9.388;2023-02-14T09:02:20;100235.00;;;9.67;85.72
34482;BME280;20720;48.886;9.388;2023-02-14T09:04:45;100226.19;;;9.68;87.21
34482;BME280;20720;48.886;9.388;2023-02-14T09:07:11;100229.59;;;10.23;84.80
34482;BME280;20720;48.886;9.388;2023-02-14T09:09:37;100224.63;;;10.55;83.32
34482;BME280;20720;48.886;9.388;2023-02-14T09:12:07;100232.56;;;11.40;79.02
34482;BME280;20720;48.886;9.388;2023-02-14T09:14:37;100230.81;;;11.23;81.33
34482;BME280;20720;48.886;9.388;2023-02-14T09:17:03;100241.03;;;9.50;88.66
34482;BME280;20720;48.886;9.388;2023-02-14T09:19:32;100224.28;;;10.76;82.16
34482;BME280;20720;48.886;9.388;2023-02-14T09:21:58;100222.16;;;11.30;77.20
34482;BME280;20720;48.886;9.388;2023-02-14T09:24:24;100223.59;;;10.30;83.87
34482;BME280;20720;48.886;9.388;2023-02-14T09:26:50;100216.38;;;11.27;79.14
34482;BME280;20720;48.886;9.388;2023-02-14T09:29:16;100213.81;;;11.43;75.81
34482;BME280;20720;48.886;9.388;2023-02-14T09:31:41;100215.78;;;10.82;77.90
34482;BME280;20720;48.886;9.388;2023-02-14T09:34:07;100209.31;;;11.02;79.87
34482;BME280;20720;48.886;9.388;2023-02-14T09:36:32;100210.25;;;10.93;80.35
34482;BME280;20720;48.886;9.388;2023-02-14T09:38:57;100213.25;;;12.23;74.86
34482;BME280;20720;48.886;9.388;2023-02-14T09:44:23;100203.94;;;13.32;70.05
34482;BME280;20720;48.886;9.388;2023-02-14T09:46:55;100212.00;;;9.34;90.43
34482;BME280;20720;48.886;9.388;2023-02-14T09:49:35;100212.16;;;7.81;100.00
34482;BME280;20720;48.886;9.388;2023-02-14T09:52:03;100216.09;;;9.64;95.10
34482;BME280;20720;48.886;9.388;2023-02-14T09:54:32;100205.53;;;12.29;79.08
34482;BME280;20720;48.886;9.388;2023-02-14T09:59:28;100211.69;;;9.64;88.23
34482;BME280;20720;48.886;9.388;2023-02-14T10:02:08;100207.19;;;11.31;84.81
34482;BME280;20720;48.886;9.388;2023-02-14T10:04:56;100207.16;;;12.14;78.25
34482;BME280;20720;48.886;9.388;2023-02-14T10:07:40;100202.38;;;10.93;79.42
34482;BME280;20720;48.886;9.388;2023-02-14T10:10:21;100193.44;;;9.72;87.23
34482;BME280;20720;48.886;9.388;2023-02-14T10:12:54;100188.00;;;10.36;88.24
34482;BME280;20720;48.886;9.388;2023-02-14T10:15:27;100192.72;;;9.97;90.51
34482;BME280;20720;48.886;9.388;2023-02-14T10:17:57;100184.94;;;12.25;78.33
34482;BME280;20720;48.886;9.388;2023-02-14T10:20:38;100188.97;;;11.71;76.42
34482;BME280;20720;48.886;9.388;2023-02-14T10:23:29;100196.78;;;12.29;73.85
34482;BME280;20720;48.886;9.388;2023-02-14T10:26:01;100185.72;;;12.90;70.39
34482;BME280;20720;48.886;9.388;2023-02-14T10:28:47;100182.09;;;11.94;75.56
34482;BME280;20720;48.886;9.388;2023-02-14T10:31:24;100179.34;;;12.52;73.52
34482;BME280;20720;48.886;9.388;2023-02-14T10:33:56;100174.63;;;14.10;68.41
34482;BME280;20720;48.886;9.388;2023-02-14T10:36:39;100172.25;;;12.28;76.70
34482;BME280;20720;48.886;9.388;2023-02-14T10:42:34;100161.69;;;10.10;89.09
34482;BME280;20720;48.886;9.388;2023-02-14T10:44:51;100154.66;;;13.85;72.59
34482;BME280;20720;48.886;9.388;2023-02-14T10:49:59;100165.31;;;12.11;74.27
34482;BME280;20720;48.886;9.388;2023-02-14T10:52:45;100151.88;;;14.84;66.39
34482;BME280;20720;48.886;9.388;2023-02-14T10:58:12;100153.94;;;12.67;71.83
34482;BME280;20720;48.886;9.388;2023-02-14T11:00:51;100153.75;;;12.85;75.09
34482;BME280;20720;48.886;9.388;2023-02-14T11:03:17;100135.28;;;14.15;67.19
34482;BME280;20720;48.886;9.388;2023-02-14T11:05:47;100138.66;;;14.98;63.95
34482;BME280;20720;48.886;9.388;2023-02-14T11:08:17;100139.66;;;14.83;63.71
34482;BME280;20720;48.886;9.388;2023-02-14T11:10:44;100132.00;;;13.91;71.17
34482;BME280;20720;48.886;9.388;2023-02-14T11:13:33;100132.47;;;12.94;72.23
34482;BME280;20720;48.886;9.388;2023-02-14T11:16:04;100120.91;;;15.57;62.77
34482;BME280;20720;48.886;9.388;2023-02-14T11:18:31;100119.94;;;16.77;59.57
34482;BME280;20720;48.886;9.388;2023-02-14T11:23:32;100126.63;;;13.76;64.41
34482;BME280;20720;48.886;9.388;2023-02-14T11:25:58;100127.31;;;15.04;64.31
34482;BME280;20720;48.886;9.388;2023-02-14T11:28:25;100113.47;;;17.27;57.84
34482;BME280;20720;48.886;9.388;2023-02-14T11:30:51;100105.63;;;17.53;53.66
34482;BME280;20720;48.886;9.388;2023-02-14T11:33:27;100104.56;;;17.00;56.65
34482;BME280;20720;48.886;9.388;2023-02-14T11:35:54;100099.81;;;16.89;56.74
34482;BME280;20720;48.886;9.388;2023-02-14T11:38:30;100099.00;;;18.29;53.26
34482;BME280;20720;48.886;9.388;2023-02-14T11:40:57;100089.03;;;16.63;56.40
34482;BME280;20720;48.886;9.388;2023-02-14T11:43:32;100089.59;;;18.33;53.81
34482;BME280;20720;48.886;9.388;2023-02-14T11:48:59;100084.03;;;18.87;52.38
34482;BME280;20720;48.886;9.388;2023-02-14T11:51:28;100072.00;;;19.97;49.33
34482;BME280;20720;48.886;9.388;2023-02-14T11:53:56;100069.72;;;18.61;51.27
34482;BME280;20720;48.886;9.388;2023-02-14T11:56:43;100068.72;;;18.49;53.81
34482;BME280;20720;48.886;9.388;2023-02-14T11:59:11;100061.09;;;19.36;51.10
34482;BME280;20720;48.886;9.388;2023-02-14T12:01:38;100065.00;;;17.72;52.52
34482;BME280;20720;48.886;9.388;2023-02-14T12:04:05;100061.28;;;18.84;52.19
34482;BME280;20720;48.886;9.388;2023-02-14T12:06:36;100057.56;;;20.54;48.76
34482;BME280;20720;48.886;9.388;2023-02-14T12:09:25;100049.00;;;20.70;48.65
34482;BME280;20720;48.886;9.388;2023-02-14T12:11:56;100050.53;;;19.86;49.29
34482;BME280;20720;48.886;9.388;2023-02-14T12:14:24;100046.09;;;20.29;49.48
34482;BME280;20720;48.886;9.388;2023-02-14T12:19:57;100047.00;;;19.92;49.00
34482;BME280;20720;48.886;9.388;2023-02-14T12:22:28;100041.63;;;19.36;50.44
34482;BME280;20720;48.886;9.388;2023-02-14T12:25:02;100039.13;;;19.72;50.74
34482;BME280;20720;48.886;9.388;2023-02-14T12:27:44;100032.09;;;19.02;52.28
34482;BME280;20720;48.886;9.388;2023-02-14T12:32:51;100028.19;;;19.80;51.07
34482;BME280;20720;48.886;9.388;2023-02-14T12:35:22;100022.66;;;17.83;54.88
34482;BME280;20720;48.886;9.388;2023-02-14T12:40:53;100015.69;;;20.30;49.87
34482;BME280;20720;48.886;9.388;2023-02-14T12:43:44;100007.56;;;20.61;49.43
34482;BME280;20720;48.886;9.388;2023-02-14T12:54:29;99996.69;;;20.20;49.39
34482;BME280;20720;48.886;9.388;2023-02-14T12:57:09;99996.56;;;18.77;49.15
34482;BME280;20720;48.886;9.388;2023-02-14T12:59:49;99991.19;;;18.90;53.20
34482;BME280;20720;48.886;9.388;2023-02-14T13:13:03;99982.09;;;19.04;50.25
34482;BME280;20720;48.886;9.388;2023-02-14T13:15:37;99973.88;;;20.60;49.47
34482;BME280;20720;48.886;9.388;2023-02-14T13:18:25;99969.06;;;21.16;47.03
34482;BME280;20720;48.886;9.388;2023-02-14T13:20:55;99970.78;;;21.40;45.73
34482;BME280;20720;48.886;9.388;2023-02-14T13:23:47;99959.88;;;22.18;45.36
34482;BME280;20720;48.886;9.388;2023-02-14T13:26:19;99959.53;;;22.03;45.22
34482;BME280;20720;48.886;9.388;2023-02-14T13:28:54;99957.63;;;22.61;44.15
34482;BME280;20720;48.886;9.388;2023-02-14T13:31:20;99957.91;;;19.06;48.87
34482;BME280;20720;48.886;9.388;2023-02-14T13:33:51;99951.59;;;21.32;47.21
34482;BME280;20720;48.886;9.388;2023-02-14T13:36:18;99951.59;;;22.08;45.67
34482;BME280;20720;48.886;9.388;2023-02-14T13:38:48;99951.47;;;22.14;44.78
34482;BME280;20720;48.886;9.388;2023-02-14T13:41:14;99941.13;;;22.81;43.46
34482;BME280;20720;48.886;9.388;2023-02-14T13:43:45;99941.22;;;22.58;43.19
34482;BME280;20720;48.886;9.388;2023-02-14T13:46:13;99942.34;;;22.50;44.04
34482;BME280;20720;48.886;9.388;2023-02-14T13:48:39;99944.56;;;22.53;43.96
34482;BME280;20720;48.886;9.388;2023-02-14T13:51:07;99939.47;;;22.40;44.00
34482;BME280;20720;48.886;9.388;2023-02-14T13:53:42;99936.38;;;22.71;43.32
34482;BME280;20720;48.886;9.388;2023-02-14T14:01:42;99935.13;;;22.90;42.98
34482;BME280;20720;48.886;9.388;2023-02-14T14:17:35;99922.31;;;22.64;43.84
34482;BME280;20720;48.886;9.388;2023-02-14T14:22:49;99920.94;;;22.38;43.38
34482;BME280;20720;48.886;9.388;2023-02-14T14:25:38;99920.38;;;22.25;44.17
34482;BME280;20720;48.886;9.388;2023-02-14T14:28:11;99920.63;;;22.12;44.39
34482;BME280;20720;48.886;9.388;2023-02-14T14:30:38;99915.47;;;21.76;45.77
34482;BME280;20720;48.886;9.388;2023-02-14T14:33:24;99914.16;;;21.43;46.39
34482;BME280;20720;48.886;9.388;2023-02-14T14:35:55;99916.31;;;22.11;45.03
34482;BME280;20720;48.886;9.388;2023-02-14T14:38:21;99909.25;;;21.82;45.32
34482;BME280;20720;48.886;9.388;2023-02-14T14:40:47;99911.03;;;22.39;44.87
34482;BME280;20720;48.886;9.388;2023-02-14T14:43:34;99904.16;;;22.43;45.04
34482;BME280;20720;48.886;9.388;2023-02-14T14:46:01;99903.66;;;21.19;47.34
34482;BME280;20720;48.886;9.388;2023-02-14T14:48:36;99905.34;;;21.54;46.94
34482;BME280;20720;48.886;9.388;2023-02-14T14:51:03;99905.50;;;22.17;45.94
34482;BME280;20720;48.886;9.388;2023-02-14T14:53:43;99902.34;;;21.63;46.59
34482;BME280;20720;48.886;9.388;2023-02-14T14:56:17;99898.75;;;21.69;46.56